sensor_id;sensor_type;location;lat;lon;timestamp;temperature;humidity
37408;DHT22;24866;50.248;8.252;2023-06-10T00:00:53;17.70;99.90
37408;DHT22;24866;50.248;8.252;2023-06-10T00:03:24;17.30;99.90
37408;DHT22;24866;50.248;8.252;2023-06-10T00:05:55;17.00;99.90
37408;DHT22;24866;50.248;8.252;2023-06-10T00:08:26;16.70;99.90
37408;DHT22;24866;50.248;8.252;2023-06-10T00:10:59;16.70;99.90
37408;DHT22;24866;50.248;8.252;2023-06-10T00:13:30;16.80;99.90
37408;DHT22;24866;50.248;8.252;2023-06-10T00:15:59;16.60;99.90
37408;DHT22;24866;50.248;8.252;2023-06-10T00:18:29;16.60;99.90
37408;DHT22;24866;50.248;8.252;2023-06-10T00:20:59;16.60;99.90
37408;DHT22;24866;50.248;8.252;2023-06-10T00:23:35;16.80;99.90
37408;DHT22;24866;50.248;8.252;2023-06-10T00:26:06;17.00;99.90
37408;DHT22;24866;50.248;8.252;2023-06-10T00:28:37;17.10;99.90
37408;DHT22;24866;50.248;8.252;2023-06-10T00:31:07;16.90;99.90
37408;DHT22;24866;50.248;8.252;2023-06-10T00:33:37;17.20;99.90
37408;DHT22;24866;50.248;8.252;2023-06-10T00:36:07;17.40;99.90
37408;DHT22;24866;50.248;8.252;2023-06-10T00:38:38;17.20;99.90
37408;DHT22;24866;50.248;8.252;2023-06-10T00:41:09;17.10;99.90
37408;DHT22;24866;50.248;8.252;2023-06-10T00:43:38;16.90;99.90
37408;DHT22;24866;50.248;8.252;2023-06-10T00:46:09;16.90;99.90
37408;DHT22;24866;50.248;8.252;2023-06-10T00:48:40;16.80;99.90
37408;DHT22;24866;50.248;8.252;2023-06-10T00:51:11;16.50;99.90
37408;DHT22;24866;50.248;8.252;2023-06-10T00:53:43;16.70;99.90
37408;DHT22;24866;50.248;8.252;2023-06-10T00:56:13;16.90;99.90
37408;DHT22;24866;50.248;8.252;2023-06-10T00:58:44;17.00;99.90
37408;DHT22;24866;50.248;8.252;2023-06-10T01:01:14;17.10;99.90
37408;DHT22;24866;50.248;8.252;2023-06-10T01:03:44;16.90;99.90
37408;DHT22;24866;50.248;8.252;2023-06-10T01:06:23;16.80;99.90
37408;DHT22;24866;50.248;8.252;2023-06-10T01:09:00;16.60;99.90
37408;DHT22;24866;50.248;8.252;2023-06-10T01:11:36;16.00;99.90
37408;DHT22;24866;50.248;8.252;2023-06-10T01:14:07;16.00;99.90
37408;DHT22;24866;50.248;8.252;2023-06-10T01:16:38;15.80;99.90
37408;DHT22;24866;50.248;8.252;2023-06-10T01:19:09;16.10;99.90
37408;DHT22;24866;50.248;8.252;2023-06-10T01:21:42;16.00;99.90
37408;DHT22;24866;50.248;8.252;2023-06-10T01:24:17;16.00;99.90
37408;DHT22;24866;50.248;8.252;2023-06-10T01:26:50;15.90;99.90
37408;DHT22;24866;50.248;8.252;2023-06-10T01:29:21;15.80;99.90
37408;DHT22;24866;50.248;8.252;2023-06-10T01:32:00;16.00;99.90
37408;DHT22;24866;50.248;8.252;2023-06-10T01:34:32;16.20;99.90
37408;DHT22;24866;50.248;8.252;2023-06-10T01:37:04;15.80;99.90
37408;DHT22;24866;50.248;8.252;2023-06-10T01:39:34;15.60;99.90
37408;DHT22;24866;50.248;8.252;2023-06-10T01:42:06;15.70;99.90
37408;DHT22;24866;50.248;8.252;2023-06-10T01:44:36;15.60;99.90
37408;DHT22;24866;50.248;8.252;2023-06-10T01:47:08;15.90;99.90
37408;DHT22;24866;50.248;8.252;2023-06-10T01:49:38;15.90;99.90
37408;DHT22;24866;50.248;8.252;2023-06-10T01:52:09;16.10;99.90
37408;DHT22;24866;50.248;8.252;2023-06-10T01:54:39;16.10;99.90
37408;DHT22;24866;50.248;8.252;2023-06-10T01:57:09;15.70;99.90
37408;DHT22;24866;50.248;8.252;2023-06-10T01:59:39;15.60;99.90
37408;DHT22;24866;50.248;8.252;2023-06-10T02:02:12;15.50;99.90
37408;DHT22;24866;50.248;8.252;2023-06-10T02:04:42;15.60;99.90
37408;DHT22;24866;50.248;8.252;2023-06-10T02:07:13;15.80;99.90
37408;DHT22;24866;50.248;8.252;2023-06-10T02:09:43;15.60;99.90
37408;DHT22;24866;50.248;8.252;2023-06-10T02:12:13;15.30;99.90
37408;DHT22;24866;50.248;8.252;2023-06-10T02:14:43;15.50;99.90
37408;DHT22;24866;50.248;8.252;2023-06-10T02:17:13;15.30;99.90
37408;DHT22;24866;50.248;8.252;2023-06-10T02:19:43;15.30;99.90
37408;DHT22;24866;50.248;8.252;2023-06-10T02:22:17;15.40;99.90
37408;DHT22;24866;50.248;8.252;2023-06-10T02:24:47;15.40;99.90
37408;DHT22;24866;50.248;8.252;2023-06-10T02:27:17;15.30;99.90
37408;DHT22;24866;50.248;8.252;2023-06-10T02:29:47;15.40;99.90
37408;DHT22;24866;50.248;8.252;2023-06-10T02:32:17;15.50;99.90
37408;DHT22;24866;50.248;8.252;2023-06-10T02:34:47;15.50;99.90
37408;DHT22;24866;50.248;8.252;2023-06-10T02:37:18;14.80;99.90
37408;DHT22;24866;50.248;8.252;2023-06-10T02:39:49;14.60;99.90
37408;DHT22;24866;50.248;8.252;2023-06-10T02:53:08;14.90;99.90
37408;DHT22;24866;50.248;8.252;2023-06-10T02:55:38;15.10;99.90
37408;DHT22;24866;50.248;8.252;2023-06-10T02:58:09;15.00;99.90
37408;DHT22;24866;50.248;8.252;2023-06-10T03:00:39;14.90;99.90
37408;DHT22;24866;50.248;8.252;2023-06-10T03:03:09;15.00;99.90
37408;DHT22;24866;50.248;8.252;2023-06-10T03:05:41;14.80;99.90
37408;DHT22;24866;50.248;8.252;2023-06-10T03:08:14;14.90;99.90
37408;DHT22;24866;50.248;8.252;2023-06-10T03:10:44;14.90;99.90
37408;DHT22;24866;50.248;8.252;2023-06-10T03:13:14;14.80;99.90
37408;DHT22;24866;50.248;8.252;2023-06-10T03:15:45;14.80;99.90
37408;DHT22;24866;50.248;8.252;2023-06-10T03:18:15;14.90;99.90
37408;DHT22;24866;50.248;8.252;2023-06-10T03:20:45;14.70;99.90
37408;DHT22;24866;50.248;8.252;2023-06-10T03:23:16;14.80;99.90
37408;DHT22;24866;50.248;8.252;2023-06-10T03:25:47;14.90;99.90
37408;DHT22;24866;50.248;8.252;2023-06-10T03:28:17;14.80;99.90
37408;DHT22;24866;50.248;8.252;2023-06-10T03:30:47;14.70;99.90
37408;DHT22;24866;50.248;8.252;2023-06-10T03:33:17;14.70;99.90
37408;DHT22;24866;50.248;8.252;2023-06-10T03:35:47;14.80;99.90
37408;DHT22;24866;50.248;8.252;2023-06-10T03:38:18;14.80;99.90
37408;DHT22;24866;50.248;8.252;2023-06-10T03:40:48;14.50;99.90
37408;DHT22;24866;50.248;8.252;2023-06-10T03:43:18;14.50;99.90
37408;DHT22;24866;50.248;8.252;2023-06-10T03:45:48;14.50;99.90
37408;DHT22;24866;50.248;8.252;2023-06-10T03:48:19;14.70;99.90
37408;DHT22;24866;50.248;8.252;2023-06-10T03:50:49;14.80;99.90
37408;DHT22;24866;50.248;8.252;2023-06-10T03:53:20;14.80;99.90
37408;DHT22;24866;50.248;8.252;2023-06-10T03:55:50;14.80;99.90
37408;DHT22;24866;50.248;8.252;2023-06-10T03:58:20;14.30;99.90
37408;DHT22;24866;50.248;8.252;2023-06-10T04:00:50;14.30;99.90
37408;DHT22;24866;50.248;8.252;2023-06-10T04:03:20;14.60;99.90
37408;DHT22;24866;50.248;8.252;2023-06-10T04:05:51;14.70;99.90
37408;DHT22;24866;50.248;8.252;2023-06-10T04:08:26;14.70;99.90
37408;DHT22;24866;50.248;8.252;2023-06-10T04:10:56;14.50;99.90
37408;DHT22;24866;50.248;8.252;2023-06-10T04:13:26;14.60;99.90
37408;DHT22;24866;50.248;8.252;2023-06-10T04:15:56;14.70;99.90
37408;DHT22;24866;50.248;8.252;2023-06-10T04:18:26;14.70;99.90
37408;DHT22;24866;50.248;8.252;2023-06-10T04:20:56;14.80;99.90
37408;DHT22;24866;50.248;8.252;2023-06-10T04:23:27;14.80;99.90
37408;DHT22;24866;50.248;8.252;2023-06-10T04:25:57;14.90;99.90
37408;DHT22;24866;50.248;8.252;2023-06-10T04:28:28;14.60;99.90
37408;DHT22;24866;50.248;8.252;2023-06-10T04:30:57;14.70;99.90
37408;DHT22;24866;50.248;8.252;2023-06-10T04:33:27;14.70;99.90
37408;DHT22;24866;50.248;8.252;2023-06-10T04:35:58;14.80;99.90
37408;DHT22;24866;50.248;8.252;2023-06-10T04:38:29;14.90;99.90
37408;DHT22;24866;50.248;8.252;2023-06-10T04:40:59;14.60;99.90
37408;DHT22;24866;50.248;8.252;2023-06-10T04:43:29;14.70;99.90
37408;DHT22;24866;50.248;8.252;2023-06-10T04:45:59;14.80;99.90
37408;DHT22;24866;50.248;8.252;2023-06-10T04:48:30;14.90;99.90
37408;DHT22;24866;50.248;8.252;2023-06-10T04:51:00;15.00;99.90
37408;DHT22;24866;50.248;8.252;2023-06-10T04:53:31;15.10;99.90
37408;DHT22;24866;50.248;8.252;2023-06-10T04:56:01;15.30;99.90
37408;DHT22;24866;50.248;8.252;2023-06-10T04:58:30;15.50;99.90
37408;DHT22;24866;50.248;8.252;2023-06-10T05:01:00;15.40;99.90
37408;DHT22;24866;50.248;8.252;2023-06-10T05:03:30;15.50;99.90
37408;DHT22;24866;50.248;8.252;2023-06-10T05:06:00;15.20;99.90
37408;DHT22;24866;50.248;8.252;2023-06-10T05:08:31;15.20;99.90
37408;DHT22;24866;50.248;8.252;2023-06-10T05:11:01;15.00;99.90
37408;DHT22;24866;50.248;8.252;2023-06-10T05:13:31;15.30;99.90
37408;DHT22;24866;50.248;8.252;2023-06-10T05:16:01;15.50;99.90
37408;DHT22;24866;50.248;8.252;2023-06-10T05:18:31;15.80;99.90
37408;DHT22;24866;50.248;8.252;2023-06-10T05:21:01;15.90;99.90
37408;DHT22;24866;50.248;8.252;2023-06-10T05:23:32;15.80;99.90
37408;DHT22;24866;50.248;8.252;2023-06-10T05:26:03;15.70;99.90
37408;DHT22;24866;50.248;8.252;2023-06-10T05:28:33;15.90;99.90
37408;DHT22;24866;50.248;8.252;2023-06-10T05:31:03;16.00;99.90
37408;DHT22;24866;50.248;8.252;2023-06-10T05:33:33;15.90;99.90
37408;DHT22;24866;50.248;8.252;2023-06-10T05:36:03;16.10;99.90
37408;DHT22;24866;50.248;8.252;2023-06-10T05:38:34;16.30;99.90
37408;DHT22;24866;50.248;8.252;2023-06-10T05:41:04;16.30;99.90
37408;DHT22;24866;50.248;8.252;2023-06-10T05:43:34;16.40;99.90
37408;DHT22;24866;50.248;8.252;2023-06-10T05:46:04;16.50;99.90
37408;DHT22;24866;50.248;8.252;2023-06-10T05:48:34;16.60;99.90
37408;DHT22;24866;50.248;8.252;2023-06-10T05:51:04;16.70;99.90
37408;DHT22;24866;50.248;8.252;2023-06-10T05:53:35;16.90;99.90
37408;DHT22;24866;50.248;8.252;2023-06-10T05:56:05;16.90;99.90
37408;DHT22;24866;50.248;8.252;2023-06-10T05:58:35;17.00;99.90
37408;DHT22;24866;50.248;8.252;2023-06-10T06:01:05;17.10;99.90
37408;DHT22;24866;50.248;8.252;2023-06-10T06:03:35;17.20;99.90
37408;DHT22;24866;50.248;8.252;2023-06-10T06:06:05;17.30;99.90
37408;DHT22;24866;50.248;8.252;2023-06-10T06:08:36;17.40;99.90
37408;DHT22;24866;50.248;8.252;2023-06-10T06:11:06;17.50;99.90
37408;DHT22;24866;50.248;8.252;2023-06-10T06:13:36;17.60;99.90
37408;DHT22;24866;50.248;8.252;2023-06-10T06:16:06;17.60;99.90
37408;DHT22;24866;50.248;8.252;2023-06-10T06:18:36;17.80;99.90
37408;DHT22;24866;50.248;8.252;2023-06-10T06:21:06;18.00;99.90
37408;DHT22;24866;50.248;8.252;2023-06-10T06:23:37;18.00;99.90
37408;DHT22;24866;50.248;8.252;2023-06-10T06:26:07;18.20;99.90
37408;DHT22;24866;50.248;8.252;2023-06-10T06:28:37;18.30;99.90
37408;DHT22;24866;50.248;8.252;2023-06-10T06:31:07;18.30;99.90
37408;DHT22;24866;50.248;8.252;2023-06-10T06:33:37;18.40;99.90
37408;DHT22;24866;50.248;8.252;2023-06-10T06:36:06;18.50;99.90
37408;DHT22;24866;50.248;8.252;2023-06-10T06:38:38;18.70;99.90
37408;DHT22;24866;50.248;8.252;2023-06-10T06:41:08;18.90;99.90
37408;DHT22;24866;50.248;8.252;2023-06-10T06:43:38;18.90;99.90
37408;DHT22;24866;50.248;8.252;2023-06-10T06:46:07;19.00;99.90
37408;DHT22;24866;50.248;8.252;2023-06-10T06:48:37;19.20;99.90
37408;DHT22;24866;50.248;8.252;2023-06-10T06:51:07;19.30;99.90
37408;DHT22;24866;50.248;8.252;2023-06-10T06:53:39;19.40;99.90
37408;DHT22;24866;50.248;8.252;2023-06-10T06:56:12;19.50;99.90
37408;DHT22;24866;50.248;8.252;2023-06-10T06:58:42;19.60;99.90
37408;DHT22;24866;50.248;8.252;2023-06-10T07:01:12;19.80;99.90
37408;DHT22;24866;50.248;8.252;2023-06-10T07:03:42;19.90;99.90
37408;DHT22;24866;50.248;8.252;2023-06-10T07:06:12;20.00;99.90
37408;DHT22;24866;50.248;8.252;2023-06-10T07:08:44;20.00;99.90
37408;DHT22;24866;50.248;8.252;2023-06-10T07:11:14;20.10;99.90
37408;DHT22;24866;50.248;8.252;2023-06-10T07:13:44;20.30;99.90
37408;DHT22;24866;50.248;8.252;2023-06-10T07:16:14;20.30;99.90
37408;DHT22;24866;50.248;8.252;2023-06-10T07:18:44;20.40;99.90
37408;DHT22;24866;50.248;8.252;2023-06-10T07:21:14;20.60;99.90
37408;DHT22;24866;50.248;8.252;2023-06-10T07:23:46;20.60;99.90
37408;DHT22;24866;50.248;8.252;2023-06-10T07:26:16;20.80;99.90
37408;DHT22;24866;50.248;8.252;2023-06-10T07:28:46;20.80;99.90
37408;DHT22;24866;50.248;8.252;2023-06-10T07:31:15;20.70;99.90
37408;DHT22;24866;50.248;8.252;2023-06-10T07:33:46;21.00;99.90
37408;DHT22;24866;50.248;8.252;2023-06-10T07:36:16;20.90;99.90
37408;DHT22;24866;50.248;8.252;2023-06-10T07:38:48;21.00;99.90
37408;DHT22;24866;50.248;8.252;2023-06-10T07:41:18;21.10;99.90
37408;DHT22;24866;50.248;8.252;2023-06-10T07:43:48;21.30;99.90
37408;DHT22;24866;50.248;8.252;2023-06-10T07:46:23;21.50;99.90
37408;DHT22;24866;50.248;8.252;2023-06-10T07:48:53;21.60;99.90
37408;DHT22;24866;50.248;8.252;2023-06-10T07:51:23;21.70;99.90
37408;DHT22;24866;50.248;8.252;2023-06-10T07:53:55;21.70;99.90
37408;DHT22;24866;50.248;8.252;2023-06-10T07:56:25;21.80;99.90
37408;DHT22;24866;50.248;8.252;2023-06-10T07:58:55;21.90;99.90
37408;DHT22;24866;50.248;8.252;2023-06-10T08:01:25;21.90;99.90
37408;DHT22;24866;50.248;8.252;2023-06-10T08:03:55;22.00;99.90
37408;DHT22;24866;50.248;8.252;2023-06-10T08:06:25;22.30;99.90
37408;DHT22;24866;50.248;8.252;2023-06-10T08:08:56;22.40;99.90
37408;DHT22;24866;50.248;8.252;2023-06-10T08:11:26;22.30;99.90
37408;DHT22;24866;50.248;8.252;2023-06-10T08:13:58;22.40;99.90
37408;DHT22;24866;50.248;8.252;2023-06-10T08:16:28;22.40;99.90
37408;DHT22;24866;50.248;8.252;2023-06-10T08:18:58;22.50;99.90
37408;DHT22;24866;50.248;8.252;2023-06-10T08:21:27;22.70;99.90
37408;DHT22;24866;50.248;8.252;2023-06-10T08:23:59;22.80;99.90
37408;DHT22;24866;50.248;8.252;2023-06-10T08:26:29;22.90;99.90
37408;DHT22;24866;50.248;8.252;2023-06-10T08:29:00;23.00;99.90
37408;DHT22;24866;50.248;8.252;2023-06-10T08:31:30;23.30;99.90
37408;DHT22;24866;50.248;8.252;2023-06-10T08:34:00;23.20;99.90
37408;DHT22;24866;50.248;8.252;2023-06-10T08:36:30;23.30;99.90
37408;DHT22;24866;50.248;8.252;2023-06-10T08:39:01;23.50;99.90
37408;DHT22;24866;50.248;8.252;2023-06-10T08:41:35;23.50;99.90
37408;DHT22;24866;50.248;8.252;2023-06-10T08:44:10;23.70;99.90
37408;DHT22;24866;50.248;8.252;2023-06-10T08:46:44;23.70;99.90
37408;DHT22;24866;50.248;8.252;2023-06-10T08:49:18;23.80;99.90
37408;DHT22;24866;50.248;8.252;2023-06-10T08:51:50;23.80;1.00
37408;DHT22;24866;50.248;8.252;2023-06-10T08:54:22;23.90;1.00
37408;DHT22;24866;50.248;8.252;2023-06-10T08:56:55;23.90;99.90
37408;DHT22;24866;50.248;8.252;2023-06-10T08:59:26;24.30;99.90
37408;DHT22;24866;50.248;8.252;2023-06-10T09:01:57;24.40;1.00
37408;DHT22;24866;50.248;8.252;2023-06-10T09:04:27;24.60;1.00
37408;DHT22;24866;50.248;8.252;2023-06-10T09:06:57;24.60;99.90
37408;DHT22;24866;50.248;8.252;2023-06-10T09:09:29;24.80;99.90
37408;DHT22;24866;50.248;8.252;2023-06-10T09:11:59;25.00;1.00
37408;DHT22;24866;50.248;8.252;2023-06-10T09:14:29;25.30;1.00
37408;DHT22;24866;50.248;8.252;2023-06-10T09:16:59;25.50;1.00
37408;DHT22;24866;50.248;8.252;2023-06-10T09:19:29;26.00;1.00
37408;DHT22;24866;50.248;8.252;2023-06-10T09:21:59;26.10;99.90
37408;DHT22;24866;50.248;8.252;2023-06-10T09:24:31;26.20;1.90
37408;DHT22;24866;50.248;8.252;2023-06-10T09:27:06;26.50;1.00
37408;DHT22;24866;50.248;8.252;2023-06-10T09:29:45;26.60;1.00
37408;DHT22;24866;50.248;8.252;2023-06-10T09:32:17;26.50;99.90
37408;DHT22;24866;50.248;8.252;2023-06-10T09:34:48;26.60;99.90
37408;DHT22;24866;50.248;8.252;2023-06-10T09:37:23;26.70;99.90
37408;DHT22;24866;50.248;8.252;2023-06-10T09:40:03;26.90;99.90
37408;DHT22;24866;50.248;8.252;2023-06-10T09:42:34;26.90;99.90
37408;DHT22;24866;50.248;8.252;2023-06-10T09:45:06;27.00;1.00
37408;DHT22;24866;50.248;8.252;2023-06-10T09:47:36;27.10;1.00
37408;DHT22;24866;50.248;8.252;2023-06-10T09:50:06;27.20;1.00
37408;DHT22;24866;50.248;8.252;2023-06-10T09:52:37;27.40;1.00
37408;DHT22;24866;50.248;8.252;2023-06-10T09:55:09;27.60;1.00
37408;DHT22;24866;50.248;8.252;2023-06-10T09:57:40;27.70;1.00
37408;DHT22;24866;50.248;8.252;2023-06-10T10:00:14;27.60;99.90
37408;DHT22;24866;50.248;8.252;2023-06-10T10:02:46;27.60;99.90
37408;DHT22;24866;50.248;8.252;2023-06-10T10:05:18;27.50;99.90
37408;DHT22;24866;50.248;8.252;2023-06-10T10:07:48;27.80;99.90
37408;DHT22;24866;50.248;8.252;2023-06-10T10:10:20;27.90;18.30
37408;DHT22;24866;50.248;8.252;2023-06-10T10:12:54;28.10;1.00
37408;DHT22;24866;50.248;8.252;2023-06-10T10:15:29;28.50;1.00
37408;DHT22;24866;50.248;8.252;2023-06-10T10:18:06;28.30;1.00
37408;DHT22;24866;50.248;8.252;2023-06-10T10:20:47;28.10;1.00
37408;DHT22;24866;50.248;8.252;2023-06-10T10:23:26;28.00;1.00
37408;DHT22;24866;50.248;8.252;2023-06-10T10:26:04;27.70;99.90
37408;DHT22;24866;50.248;8.252;2023-06-10T10:28:41;28.00;99.90
37408;DHT22;24866;50.248;8.252;2023-06-10T10:31:15;27.70;99.90
37408;DHT22;24866;50.248;8.252;2023-06-10T10:33:54;27.90;99.90
37408;DHT22;24866;50.248;8.252;2023-06-10T10:36:25;28.50;99.90
37408;DHT22;24866;50.248;8.252;2023-06-10T10:38:56;28.50;99.90
37408;DHT22;24866;50.248;8.252;2023-06-10T10:41:28;27.40;1.00
37408;DHT22;24866;50.248;8.252;2023-06-10T10:44:00;27.80;1.00
37408;DHT22;24866;50.248;8.252;2023-06-10T10:46:30;28.10;1.00
37408;DHT22;24866;50.248;8.252;2023-06-10T10:49:13;28.10;1.00
37408;DHT22;24866;50.248;8.252;2023-06-10T10:51:56;28.10;1.00
37408;DHT22;24866;50.248;8.252;2023-06-10T10:54:31;28.50;1.00
37408;DHT22;24866;50.248;8.252;2023-06-10T10:57:13;28.10;1.00
37408;DHT22;24866;50.248;8.252;2023-06-10T10:59:52;27.80;1.00
37408;DHT22;24866;50.248;8.252;2023-06-10T11:02:37;28.20;1.00
37408;DHT22;24866;50.248;8.252;2023-06-10T11:05:13;28.70;1.00
37408;DHT22;24866;50.248;8.252;2023-06-10T11:07:52;28.50;1.00
37408;DHT22;24866;50.248;8.252;2023-06-10T11:10:29;28.60;1.00
37408;DHT22;24866;50.248;8.252;2023-06-10T11:13:05;28.80;1.00
37408;DHT22;24866;50.248;8.252;2023-06-10T11:15:42;29.00;99.90
37408;DHT22;24866;50.248;8.252;2023-06-10T11:18:14;28.30;99.90
37408;DHT22;24866;50.248;8.252;2023-06-10T11:20:50;28.50;99.90
37408;DHT22;24866;50.248;8.252;2023-06-10T11:23:39;28.70;99.90
37408;DHT22;24866;50.248;8.252;2023-06-10T11:29:09;29.10;99.90
37408;DHT22;24866;50.248;8.252;2023-06-10T11:31:42;28.60;99.90
37408;DHT22;24866;50.248;8.252;2023-06-10T11:34:13;28.30;45.60
37408;DHT22;24866;50.248;8.252;2023-06-10T11:36:43;28.40;2.60
37408;DHT22;24866;50.248;8.252;2023-06-10T11:39:14;28.70;16.70
37408;DHT22;24866;50.248;8.252;2023-06-10T11:41:45;28.90;1.00
37408;DHT22;24866;50.248;8.252;2023-06-10T11:44:17;29.20;1.00
37408;DHT22;24866;50.248;8.252;2023-06-10T11:46:48;29.30;1.00
37408;DHT22;24866;50.248;8.252;2023-06-10T11:49:20;29.50;1.00
37408;DHT22;24866;50.248;8.252;2023-06-10T11:51:50;29.40;1.00
37408;DHT22;24866;50.248;8.252;2023-06-10T11:54:21;29.10;1.00
37408;DHT22;24866;50.248;8.252;2023-06-10T11:56:57;29.20;1.00
37408;DHT22;24866;50.248;8.252;2023-06-10T11:59:29;29.30;1.00
37408;DHT22;24866;50.248;8.252;2023-06-10T12:01:59;29.40;1.00
37408;DHT22;24866;50.248;8.252;2023-06-10T12:04:29;29.60;1.00
37408;DHT22;24866;50.248;8.252;2023-06-10T12:06:59;29.60;1.00
37408;DHT22;24866;50.248;8.252;2023-06-10T12:09:30;29.70;1.00
37408;DHT22;24866;50.248;8.252;2023-06-10T12:12:03;29.60;1.00
37408;DHT22;24866;50.248;8.252;2023-06-10T12:14:54;29.50;1.00
37408;DHT22;24866;50.248;8.252;2023-06-10T12:17:36;29.00;99.90
37408;DHT22;24866;50.248;8.252;2023-06-10T12:20:07;29.00;99.90
37408;DHT22;24866;50.248;8.252;2023-06-10T12:22:52;29.30;99.90
37408;DHT22;24866;50.248;8.252;2023-06-10T12:25:26;29.40;99.90
37408;DHT22;24866;50.248;8.252;2023-06-10T12:27:58;29.40;99.90
37408;DHT22;24866;50.248;8.252;2023-06-10T12:30:31;29.50;99.90
37408;DHT22;24866;50.248;8.252;2023-06-10T12:33:01;29.70;99.90
37408;DHT22;24866;50.248;8.252;2023-06-10T12:35:31;29.80;99.90
37408;DHT22;24866;50.248;8.252;2023-06-10T12:38:03;30.10;99.90
37408;DHT22;24866;50.248;8.252;2023-06-10T12:40:37;30.10;99.90
37408;DHT22;24866;50.248;8.252;2023-06-10T12:43:09;30.00;99.90
37408;DHT22;24866;50.248;8.252;2023-06-10T12:45:43;30.20;99.90
37408;DHT22;24866;50.248;8.252;2023-06-10T12:48:18;29.70;26.00
37408;DHT22;24866;50.248;8.252;2023-06-10T12:50:51;30.00;8.00
37408;DHT22;24866;50.248;8.252;2023-06-10T12:53:22;30.20;1.00
37408;DHT22;24866;50.248;8.252;2023-06-10T12:55:53;30.40;1.00
37408;DHT22;24866;50.248;8.252;2023-06-10T12:58:23;30.00;1.00
37408;DHT22;24866;50.248;8.252;2023-06-10T13:00:54;29.60;1.00
37408;DHT22;24866;50.248;8.252;2023-06-10T13:03:25;29.60;1.00
37408;DHT22;24866;50.248;8.252;2023-06-10T13:05:55;29.70;1.00
37408;DHT22;24866;50.248;8.252;2023-06-10T13:08:26;29.40;1.00
37408;DHT22;24866;50.248;8.252;2023-06-10T13:10:57;29.80;1.00
37408;DHT22;24866;50.248;8.252;2023-06-10T13:13:28;30.20;1.00
37408;DHT22;24866;50.248;8.252;2023-06-10T13:16:00;30.10;1.00
37408;DHT22;24866;50.248;8.252;2023-06-10T13:18:31;29.90;1.00
37408;DHT22;24866;50.248;8.252;2023-06-10T13:21:05;30.30;1.00
37408;DHT22;24866;50.248;8.252;2023-06-10T13:23:36;30.50;1.00
37408;DHT22;24866;50.248;8.252;2023-06-10T13:26:06;30.60;1.00
37408;DHT22;24866;50.248;8.252;2023-06-10T13:28:37;30.70;1.00
37408;DHT22;24866;50.248;8.252;2023-06-10T13:31:10;30.60;1.00
37408;DHT22;24866;50.248;8.252;2023-06-10T13:33:40;30.60;1.00
37408;DHT22;24866;50.248;8.252;2023-06-10T13:36:12;30.60;1.00
37408;DHT22;24866;50.248;8.252;2023-06-10T13:38:43;30.90;1.00
37408;DHT22;24866;50.248;8.252;2023-06-10T13:41:14;30.90;1.00
37408;DHT22;24866;50.248;8.252;2023-06-10T13:43:46;30.90;99.90
37408;DHT22;24866;50.248;8.252;2023-06-10T13:46:18;29.90;99.90
37408;DHT22;24866;50.248;8.252;2023-06-10T13:48:51;29.70;99.90
37408;DHT22;24866;50.248;8.252;2023-06-10T13:51:21;29.80;99.90
37408;DHT22;24866;50.248;8.252;2023-06-10T13:53:51;30.20;99.90
37408;DHT22;24866;50.248;8.252;2023-06-10T13:56:21;30.50;99.90
37408;DHT22;24866;50.248;8.252;2023-06-10T13:58:51;30.60;99.90
37408;DHT22;24866;50.248;8.252;2023-06-10T14:01:22;30.40;99.90
37408;DHT22;24866;50.248;8.252;2023-06-10T14:03:52;30.70;99.90
37408;DHT22;24866;50.248;8.252;2023-06-10T14:06:22;30.60;99.90
37408;DHT22;24866;50.248;8.252;2023-06-10T14:08:52;30.40;99.90
37408;DHT22;24866;50.248;8.252;2023-06-10T14:11:23;30.50;99.90
37408;DHT22;24866;50.248;8.252;2023-06-10T14:13:53;30.20;99.90
37408;DHT22;24866;50.248;8.252;2023-06-10T14:16:26;30.30;99.90
37408;DHT22;24866;50.248;8.252;2023-06-10T14:18:56;30.30;98.20
37408;DHT22;24866;50.248;8.252;2023-06-10T14:21:26;30.50;98.10
37408;DHT22;24866;50.248;8.252;2023-06-10T14:23:56;30.80;99.90
37408;DHT22;24866;50.248;8.252;2023-06-10T14:26:26;31.00;95.40
37408;DHT22;24866;50.248;8.252;2023-06-10T14:28:55;31.10;76.60
37408;DHT22;24866;50.248;8.252;2023-06-10T14:31:27;30.70;15.20
37408;DHT22;24866;50.248;8.252;2023-06-10T14:33:57;30.70;1.00
37408;DHT22;24866;50.248;8.252;2023-06-10T14:36:27;30.80;1.00
37408;DHT22;24866;50.248;8.252;2023-06-10T14:38:56;30.80;1.00
37408;DHT22;24866;50.248;8.252;2023-06-10T14:41:27;30.70;1.00
37408;DHT22;24866;50.248;8.252;2023-06-10T14:43:58;30.60;1.00
37408;DHT22;24866;50.248;8.252;2023-06-10T14:46:29;30.20;1.00
37408;DHT22;24866;50.248;8.252;2023-06-10T14:48:59;30.30;1.00
37408;DHT22;24866;50.248;8.252;2023-06-10T14:51:30;30.50;1.00
37408;DHT22;24866;50.248;8.252;2023-06-10T14:54:00;30.40;1.00
37408;DHT22;24866;50.248;8.252;2023-06-10T14:56:30;30.30;1.00
37408;DHT22;24866;50.248;8.252;2023-06-10T14:59:01;30.00;1.00
37408;DHT22;24866;50.248;8.252;2023-06-10T15:01:32;30.00;1.00
37408;DHT22;24866;50.248;8.252;2023-06-10T15:04:02;30.10;1.00
37408;DHT22;24866;50.248;8.252;2023-06-10T15:06:32;30.40;1.00
37408;DHT22;24866;50.248;8.252;2023-06-10T15:09:02;30.20;1.00
37408;DHT22;24866;50.248;8.252;2023-06-10T15:11:32;30.20;1.00
37408;DHT22;24866;50.248;8.252;2023-06-10T15:14:02;30.20;1.00
37408;DHT22;24866;50.248;8.252;2023-06-10T15:16:33;30.20;1.00
37408;DHT22;24866;50.248;8.252;2023-06-10T15:19:03;30.20;1.00
37408;DHT22;24866;50.248;8.252;2023-06-10T15:21:35;30.50;1.00
37408;DHT22;24866;50.248;8.252;2023-06-10T15:24:06;30.50;1.00
37408;DHT22;24866;50.248;8.252;2023-06-10T15:26:36;30.10;1.00
37408;DHT22;24866;50.248;8.252;2023-06-10T15:29:06;29.80;1.00
37408;DHT22;24866;50.248;8.252;2023-06-10T15:31:38;30.20;1.00
37408;DHT22;24866;50.248;8.252;2023-06-10T15:34:08;30.60;1.00
37408;DHT22;24866;50.248;8.252;2023-06-10T15:36:38;30.20;1.00
37408;DHT22;24866;50.248;8.252;2023-06-10T15:39:07;30.40;1.00
37408;DHT22;24866;50.248;8.252;2023-06-10T15:41:37;30.20;1.00
37408;DHT22;24866;50.248;8.252;2023-06-10T15:44:07;30.20;1.00
37408;DHT22;24866;50.248;8.252;2023-06-10T15:46:39;30.40;1.00
37408;DHT22;24866;50.248;8.252;2023-06-10T15:49:09;30.60;1.00
37408;DHT22;24866;50.248;8.252;2023-06-10T15:51:39;30.70;1.00
37408;DHT22;24866;50.248;8.252;2023-06-10T15:54:09;30.70;1.00
37408;DHT22;24866;50.248;8.252;2023-06-10T15:56:38;30.20;1.00
37408;DHT22;24866;50.248;8.252;2023-06-10T15:59:09;30.10;1.00
37408;DHT22;24866;50.248;8.252;2023-06-10T16:01:41;29.90;1.00
37408;DHT22;24866;50.248;8.252;2023-06-10T16:04:11;29.70;99.90
37408;DHT22;24866;50.248;8.252;2023-06-10T16:06:41;30.00;99.90
37408;DHT22;24866;50.248;8.252;2023-06-10T16:09:11;30.10;99.90
37408;DHT22;24866;50.248;8.252;2023-06-10T16:11:41;30.30;99.90
37408;DHT22;24866;50.248;8.252;2023-06-10T16:14:11;30.20;99.90